Round Rock, Arizona
Current Conditions -  °F | °C
As of 8:53 AM on Friday 31 Oct 2014 (Local Time) from KRQE Reporting Station
Clear Clear  
Wind Chill: 40°   Ceiling: Unl
Heat Index: 40°   Visibility: 10mi
Dew Point: 17°   Wind: 3mph
Humidity: 40%   Direction: 350°N
Pressure: 30.33"   Gusts: NA
Location:  36.51°N, 109.47°W
Report Text: KRQE 311453Z AUTO 35003KT 10SM CLR 04/M08 A3033 RMK AO2 SLP223 T00441083 53004 TSNO
Loading
Personal Weather Stations






























Interactive Weather Map
Tropical Storm Tracking
New forecast layout! Learn more

10-Day Weather Forecast

Advertisements
Track Severe Weather on mobile